createdAt,value
2023-04-16T00:03:28.286Z,100.00
2023-04-16T00:13:03.248Z,100.00
2023-04-16T00:22:36.022Z,100.00
2023-04-16T00:32:09.829Z,100.00
2023-04-16T00:41:45.348Z,100.00
2023-04-16T00:51:17.366Z,100.00
2023-04-16T01:00:52.470Z,100.00
2023-04-16T01:10:24.657Z,100.00
2023-04-16T01:11:28.636Z,100.00
2023-04-16T01:21:00.399Z,100.00
2023-04-16T01:30:33.564Z,100.00
2023-04-16T01:40:07.374Z,100.00
2023-04-16T01:49:40.839Z,100.00
2023-04-16T01:59:16.424Z,100.00
2023-04-16T02:08:50.039Z,100.00
2023-04-16T02:18:23.636Z,100.00
2023-04-16T02:27:55.769Z,100.00
2023-04-16T02:37:31.575Z,100.00
2023-04-16T02:47:03.594Z,100.00
2023-04-16T02:56:37.650Z,100.00
2023-04-16T03:06:13.312Z,100.00
2023-04-16T03:15:45.526Z,100.00
2023-04-16T03:25:20.728Z,100.00
2023-04-16T03:34:52.815Z,100.00
2023-04-16T03:44:26.796Z,98.88
2023-04-16T03:54:00.893Z,98.30
2023-04-16T04:03:34.938Z,98.32
2023-04-16T04:13:10.011Z,96.97
2023-04-16T04:22:44.319Z,96.32
2023-04-16T04:32:18.268Z,96.75
2023-04-16T04:41:50.140Z,96.86
2023-04-16T04:51:25.748Z,96.65
2023-04-16T05:00:57.845Z,97.44
2023-04-16T05:10:33.176Z,96.96
2023-04-16T05:20:06.842Z,97.86
2023-04-16T05:29:40.526Z,98.47
2023-04-16T05:39:13.158Z,98.66
2023-04-16T05:48:47.092Z,99.81
2023-04-16T05:58:21.404Z,100.00
2023-04-16T06:07:55.231Z,100.00
2023-04-16T06:17:30.853Z,100.00
2023-04-16T06:27:03.527Z,100.00
2023-04-16T06:36:39.438Z,100.00
2023-04-16T06:46:11.892Z,99.72
2023-04-16T06:55:46.380Z,99.63
2023-04-16T07:05:22.101Z,100.00
2023-04-16T07:14:54.784Z,100.00
2023-04-16T07:24:30.403Z,100.00
2023-04-16T07:34:04.450Z,100.00
2023-04-16T07:43:36.705Z,100.00
2023-04-16T07:44:40.767Z,100.00
2023-04-16T07:45:44.738Z,100.00
2023-04-16T07:46:47.771Z,100.00
2023-04-16T07:47:51.044Z,100.00
2023-04-16T07:48:54.913Z,100.00
2023-04-16T07:58:25.457Z,100.00
2023-04-16T07:59:28.044Z,100.00
2023-04-16T08:00:31.957Z,100.00
2023-04-16T08:01:34.287Z,100.00
2023-04-16T08:02:38.392Z,100.00
2023-04-16T08:03:42.318Z,100.00
2023-04-16T08:13:12.394Z,100.00
2023-04-16T08:14:16.463Z,100.00
2023-04-16T08:15:18.828Z,100.00
2023-04-16T08:16:21.251Z,100.00
2023-04-16T08:17:23.742Z,100.00
2023-04-16T08:18:27.657Z,100.00
2023-04-16T08:19:29.956Z,100.00
2023-04-16T08:20:32.430Z,100.00
2023-04-16T08:21:36.488Z,100.00
2023-04-16T08:22:38.768Z,100.00
2023-04-16T08:23:41.159Z,100.00
2023-04-16T08:24:43.629Z,100.00
2023-04-16T08:25:47.578Z,100.00
2023-04-16T08:26:51.484Z,100.00
2023-04-16T08:27:53.792Z,100.00
2023-04-16T08:28:56.208Z,100.00
2023-04-16T08:30:00.269Z,100.00
2023-04-16T08:31:04.148Z,100.00
2023-04-16T08:40:35.820Z,100.00
2023-04-16T08:41:39.694Z,100.00
2023-04-16T08:42:43.681Z,100.00
2023-04-16T08:43:47.581Z,100.00
2023-04-16T08:44:49.927Z,100.00
2023-04-16T08:45:52.132Z,100.00
2023-04-16T08:46:54.669Z,100.00
2023-04-16T08:47:58.648Z,100.00
2023-04-16T08:49:00.914Z,100.00
2023-04-16T08:50:04.969Z,100.00
2023-04-16T08:51:07.218Z,100.00
2023-04-16T08:52:11.270Z,100.00
2023-04-16T08:53:13.599Z,100.00
2023-04-16T08:54:15.961Z,100.00
2023-04-16T08:55:18.388Z,100.00
2023-04-16T08:56:20.851Z,100.00
2023-04-16T08:57:24.907Z,100.00
2023-04-16T08:58:27.218Z,100.00
2023-04-16T08:59:29.562Z,100.00
2023-04-16T09:00:32.060Z,100.00
2023-04-16T09:01:34.455Z,100.00
2023-04-16T09:02:38.656Z,100.00
2023-04-16T09:03:40.870Z,100.00
2023-04-16T09:04:43.311Z,100.00
2023-04-16T09:05:47.236Z,100.00
2023-04-16T09:06:49.512Z,100.00
2023-04-16T09:07:51.968Z,100.00
2023-04-16T09:08:54.344Z,100.00
2023-04-16T09:09:58.477Z,100.00
2023-04-16T09:11:02.283Z,100.00
2023-04-16T09:20:32.551Z,100.00
2023-04-16T09:21:35.023Z,100.00
2023-04-16T09:22:37.432Z,100.00
2023-04-16T09:23:41.514Z,100.00
2023-04-16T09:24:43.905Z,100.00
2023-04-16T09:25:46.323Z,100.00
2023-04-16T09:26:48.802Z,100.00
2023-04-16T09:27:52.805Z,100.00
2023-04-16T09:28:56.697Z,100.00
2023-04-16T09:29:58.989Z,100.00
2023-04-16T09:31:03.178Z,100.00
2023-04-16T09:32:07.329Z,100.00
2023-04-16T09:33:11.171Z,100.00
2023-04-16T09:34:15.082Z,100.00
2023-04-16T09:35:17.312Z,100.00
2023-04-16T09:36:21.444Z,100.00
2023-04-16T09:37:23.703Z,100.00
2023-04-16T09:38:26.114Z,100.00
2023-04-16T09:39:30.180Z,100.00
2023-04-16T09:40:34.050Z,100.00
2023-04-16T09:41:36.381Z,100.00
2023-04-16T09:42:40.394Z,100.00
2023-04-16T09:43:44.254Z,100.00
2023-04-16T09:44:48.160Z,100.00
2023-04-16T09:45:50.528Z,100.00
2023-04-16T09:46:54.489Z,100.00
2023-04-16T09:47:56.906Z,100.00
2023-04-16T09:49:00.858Z,100.00
2023-04-16T09:50:03.130Z,100.00
2023-04-16T09:51:05.661Z,99.34
2023-04-16T09:52:08.036Z,99.93
2023-04-16T09:53:10.442Z,100.00
2023-04-16T09:54:12.925Z,100.00
2023-04-16T09:55:17.046Z,99.80
2023-04-16T09:56:20.992Z,100.00
2023-04-16T09:57:24.946Z,99.80
2023-04-16T09:58:28.787Z,97.65
2023-04-16T09:59:31.149Z,98.03
2023-04-16T10:00:33.578Z,98.78
2023-04-16T10:01:36.085Z,98.50
2023-04-16T10:02:38.608Z,98.86
2023-04-16T10:03:41.090Z,98.59
2023-04-16T10:04:45.191Z,98.23
2023-04-16T10:05:47.440Z,97.83
2023-04-16T10:06:49.951Z,96.61
2023-04-16T10:07:53.954Z,96.90
2023-04-16T10:08:57.813Z,97.64
2023-04-16T10:10:01.774Z,96.32
2023-04-16T10:11:04.170Z,96.83
2023-04-16T10:12:08.148Z,97.47
2023-04-16T10:13:10.513Z,97.25
2023-04-16T10:14:12.939Z,97.22
2023-04-16T10:15:16.923Z,97.30
2023-04-16T10:16:20.762Z,97.74
2023-04-16T10:17:23.057Z,98.15
2023-04-16T10:18:27.180Z,97.43
2023-04-16T10:19:29.388Z,97.15
2023-04-16T10:20:33.443Z,96.66
2023-04-16T10:21:37.375Z,96.27
2023-04-16T10:22:39.666Z,96.78
2023-04-16T10:23:43.776Z,95.72
2023-04-16T10:24:47.622Z,96.17
2023-04-16T10:25:51.581Z,96.29
2023-04-16T10:26:53.846Z,95.45
2023-04-16T10:27:56.379Z,95.29
2023-04-16T10:29:00.414Z,95.96
2023-04-16T10:30:04.367Z,95.46
2023-04-16T10:31:08.303Z,95.04
2023-04-16T10:32:12.155Z,93.72
2023-04-16T10:33:14.484Z,94.68
2023-04-16T10:34:18.516Z,95.26
2023-04-16T10:35:20.788Z,95.83
2023-04-16T10:36:23.177Z,94.91
2023-04-16T10:37:27.197Z,95.31
2023-04-16T10:38:29.565Z,95.50
2023-04-16T10:39:32.016Z,95.10
2023-04-16T10:40:36.053Z,94.24
2023-04-16T10:41:38.478Z,94.42
2023-04-16T10:42:42.520Z,93.86
2023-04-16T10:43:44.868Z,94.53
2023-04-16T10:44:47.290Z,94.97
2023-04-16T10:45:49.712Z,95.03
2023-04-16T10:46:52.111Z,95.31
2023-04-16T10:47:54.620Z,94.90
2023-04-16T10:48:57.037Z,94.52
2023-04-16T10:50:01.026Z,94.32
2023-04-16T10:51:05.147Z,95.00
2023-04-16T10:52:07.507Z,94.48
2023-04-16T10:53:11.504Z,94.37
2023-04-16T10:54:15.396Z,94.61
2023-04-16T10:55:17.710Z,94.57
2023-04-16T10:56:21.773Z,94.54
2023-04-16T10:57:25.605Z,92.56
2023-04-16T10:58:29.585Z,92.78
2023-04-16T10:59:31.811Z,93.32
2023-04-16T11:00:35.894Z,94.81
2023-04-16T11:01:39.950Z,94.62
2023-04-16T11:02:42.160Z,93.94
2023-04-16T11:03:44.520Z,91.53
2023-04-16T11:04:47.145Z,92.32
2023-04-16T11:05:51.172Z,91.29
2023-04-16T11:06:53.473Z,91.59
2023-04-16T11:07:57.480Z,91.24
2023-04-16T11:08:59.851Z,91.66
2023-04-16T11:10:03.842Z,92.59
2023-04-16T11:11:06.190Z,91.83
2023-04-16T11:12:08.615Z,92.72
2023-04-16T11:13:11.074Z,92.62
2023-04-16T11:14:15.196Z,89.39
2023-04-16T11:15:17.498Z,90.70
2023-04-16T11:16:19.993Z,89.95
2023-04-16T11:17:24.001Z,90.19
2023-04-16T11:18:27.987Z,90.12
2023-04-16T11:19:30.342Z,90.07
2023-04-16T11:20:34.357Z,90.07
2023-04-16T11:21:36.630Z,90.47
2023-04-16T11:22:40.665Z,90.45
2023-04-16T11:23:44.471Z,89.97
2023-04-16T11:24:48.375Z,90.26
2023-04-16T11:25:52.214Z,90.61
2023-04-16T11:26:54.519Z,89.65
2023-04-16T11:27:58.521Z,89.81
2023-04-16T11:29:00.853Z,89.13
2023-04-16T11:30:03.200Z,89.05
2023-04-16T11:31:07.242Z,89.57
2023-04-16T11:32:11.217Z,90.22
2023-04-16T11:33:13.428Z,89.51
2023-04-16T11:34:17.399Z,89.93
2023-04-16T11:35:21.282Z,90.58
2023-04-16T11:36:25.505Z,91.01
2023-04-16T11:37:26.006Z,91.90
2023-04-16T11:38:30.013Z,92.34
2023-04-16T11:39:32.385Z,92.84
2023-04-16T11:40:36.378Z,92.81
2023-04-16T11:41:38.626Z,93.58
2023-04-16T11:42:42.793Z,93.54
2023-04-16T11:43:44.995Z,93.21
2023-04-16T11:44:49.050Z,93.31
2023-04-16T11:45:51.407Z,93.78
2023-04-16T11:46:54.675Z,94.10
2023-04-16T11:47:56.995Z,93.95
2023-04-16T11:48:59.453Z,94.35
2023-04-16T11:50:01.850Z,94.00
2023-04-16T11:51:04.250Z,93.80
2023-04-16T11:52:06.682Z,93.64
2023-04-16T11:53:09.146Z,94.26
2023-04-16T11:54:12.150Z,93.79
2023-04-16T11:55:15.574Z,94.62
2023-04-16T11:56:17.914Z,95.19
2023-04-16T11:57:20.304Z,95.39
2023-04-16T11:58:24.313Z,95.55
2023-04-16T11:59:26.616Z,95.49
2023-04-16T12:00:30.632Z,95.98
2023-04-16T12:01:33.035Z,96.02
2023-04-16T12:02:37.571Z,95.63
2023-04-16T12:03:41.530Z,95.30
2023-04-16T12:04:43.669Z,95.40
2023-04-16T12:05:47.656Z,95.39
2023-04-16T12:06:49.895Z,95.40
2023-04-16T12:07:53.961Z,95.33
2023-04-16T12:08:56.290Z,94.72
2023-04-16T12:09:58.684Z,93.78
2023-04-16T12:11:01.166Z,94.00
2023-04-16T12:12:03.541Z,93.55
2023-04-16T12:13:06.054Z,93.64
2023-04-16T12:14:08.517Z,93.48
2023-04-16T12:15:10.959Z,94.08
2023-04-16T12:16:13.478Z,94.15
2023-04-16T12:17:17.565Z,94.71
2023-04-16T12:18:21.527Z,94.98
2023-04-16T12:19:25.430Z,93.50
2023-04-16T12:20:27.820Z,93.36
2023-04-16T12:21:30.207Z,93.93
2023-04-16T12:22:36.033Z,93.99
2023-04-16T12:23:38.162Z,92.91
2023-04-16T12:24:42.040Z,93.31
2023-04-16T12:25:44.370Z,93.21
2023-04-16T12:26:46.769Z,92.34
2023-04-16T12:27:53.247Z,93.01
2023-04-16T12:28:53.150Z,92.43
2023-04-16T12:29:55.605Z,92.93
2023-04-16T12:30:59.672Z,93.28
2023-04-16T12:32:01.992Z,93.83
2023-04-16T12:33:04.472Z,93.41
2023-04-16T12:34:06.873Z,93.63
2023-04-16T12:35:09.320Z,93.22
2023-04-16T12:44:41.612Z,94.21
2023-04-16T12:45:44.281Z,94.18
2023-04-16T12:46:51.527Z,94.09
2023-04-16T12:47:53.895Z,92.20
2023-04-16T12:48:56.307Z,91.86
2023-04-16T12:50:00.282Z,92.12
2023-04-16T12:51:04.230Z,91.41
2023-04-16T12:52:06.518Z,91.00
2023-04-16T12:53:10.593Z,91.11
2023-04-16T12:54:12.859Z,91.03
2023-04-16T12:55:16.995Z,90.81
2023-04-16T12:56:20.849Z,89.83
2023-04-16T12:57:23.120Z,90.73
2023-04-16T12:58:27.164Z,90.56
2023-04-16T12:59:29.458Z,90.47
2023-04-16T13:00:31.940Z,91.21
2023-04-16T13:01:34.492Z,89.47
2023-04-16T13:02:36.920Z,90.03
2023-04-16T13:03:39.401Z,90.05
2023-04-16T13:04:41.823Z,89.59
2023-04-16T13:05:45.762Z,89.06
2023-04-16T13:06:49.651Z,88.52
2023-04-16T13:07:53.520Z,88.11
2023-04-16T13:08:57.465Z,87.31
2023-04-16T13:09:59.803Z,86.34
2023-04-16T13:11:02.152Z,86.38
2023-04-16T13:12:06.254Z,86.60
2023-04-16T13:13:10.119Z,86.36
2023-04-16T13:14:12.468Z,85.56
2023-04-16T13:15:14.941Z,86.52
2023-04-16T13:16:19.252Z,86.00
2023-04-16T13:17:21.578Z,85.00
2023-04-16T13:18:24.023Z,84.81
2023-04-16T13:19:26.421Z,83.62
2023-04-16T13:20:30.522Z,84.29
2023-04-16T13:21:34.435Z,84.22
2023-04-16T13:22:36.795Z,84.17
2023-04-16T13:23:39.231Z,84.05
2023-04-16T13:24:41.504Z,83.16
2023-04-16T13:25:44.058Z,82.96
2023-04-16T13:26:48.043Z,80.97
2023-04-16T13:27:52.025Z,80.57
2023-04-16T13:28:55.908Z,81.57
2023-04-16T13:29:59.839Z,81.64
2023-04-16T13:31:03.491Z,81.03
2023-04-16T13:32:06.300Z,79.37
2023-04-16T13:33:10.211Z,79.14
2023-04-16T13:34:12.490Z,80.22
2023-04-16T13:35:14.954Z,79.77
2023-04-16T13:36:17.352Z,80.36
2023-04-16T13:37:21.448Z,81.09
2023-04-16T13:38:25.313Z,78.58
2023-04-16T13:39:27.738Z,78.44
2023-04-16T13:40:30.152Z,76.43
2023-04-16T13:41:34.225Z,77.74
2023-04-16T13:42:38.168Z,76.48
2023-04-16T13:43:40.506Z,77.25
2023-04-16T13:44:42.873Z,78.04
2023-04-16T13:45:46.970Z,77.06
2023-04-16T13:46:50.843Z,77.04
2023-04-16T13:47:54.782Z,75.85
2023-04-16T13:48:58.612Z,75.24
2023-04-16T13:50:02.504Z,76.16
2023-04-16T13:51:04.919Z,75.57
2023-04-16T13:52:08.929Z,75.46
2023-04-16T13:53:11.204Z,76.41
2023-04-16T13:54:15.316Z,76.35
2023-04-16T13:55:17.791Z,78.05
2023-04-16T13:56:20.173Z,76.27
2023-04-16T13:57:22.677Z,77.48
2023-04-16T13:58:26.648Z,77.23
2023-04-16T13:59:30.596Z,76.18
2023-04-16T14:00:33.140Z,75.84
2023-04-16T14:01:35.875Z,75.55
2023-04-16T14:02:40.161Z,75.49
2023-04-16T14:03:44.162Z,75.63
2023-04-16T14:04:46.743Z,75.15
2023-04-16T14:05:50.888Z,74.87
2023-04-16T14:06:53.424Z,73.64
2023-04-16T14:07:55.989Z,73.73
2023-04-16T14:09:00.308Z,71.60
2023-04-16T14:10:02.763Z,71.60
2023-04-16T14:11:07.132Z,71.19
2023-04-16T14:12:11.258Z,71.72
2023-04-16T14:13:13.766Z,72.05
2023-04-16T14:14:16.436Z,71.23
2023-04-16T14:15:20.679Z,71.03
2023-04-16T14:16:23.257Z,70.90
2023-04-16T14:17:25.835Z,71.93
2023-04-16T14:18:30.213Z,72.86
2023-04-16T14:19:32.781Z,72.46
2023-04-16T14:20:36.995Z,73.03
2023-04-16T14:21:41.201Z,72.20
2023-04-16T14:22:43.768Z,71.41
2023-04-16T14:23:48.479Z,71.06
2023-04-16T14:24:51.182Z,71.50
2023-04-16T14:25:53.797Z,70.52
2023-04-16T14:26:56.376Z,70.64
2023-04-16T14:27:59.055Z,70.64
2023-04-16T14:29:01.668Z,69.94
2023-04-16T14:30:04.328Z,70.28
2023-04-16T14:31:07.001Z,71.52
2023-04-16T14:32:09.811Z,71.77
2023-04-16T14:33:13.877Z,72.49
2023-04-16T14:34:16.362Z,72.47
2023-04-16T14:35:19.002Z,69.60
2023-04-16T14:36:23.299Z,69.59
2023-04-16T14:37:25.799Z,69.28
2023-04-16T14:38:28.605Z,69.55
2023-04-16T14:39:31.254Z,67.73
2023-04-16T14:40:33.931Z,67.15
2023-04-16T14:41:36.640Z,67.93
2023-04-16T14:42:39.308Z,66.48
2023-04-16T14:43:41.966Z,67.80
2023-04-16T14:44:44.576Z,69.56
2023-04-16T14:45:47.349Z,67.06
2023-04-16T14:46:51.557Z,68.20
2023-04-16T14:47:55.773Z,66.51
2023-04-16T14:48:58.249Z,65.13
2023-04-16T14:50:00.952Z,65.98
2023-04-16T14:51:05.146Z,68.08
2023-04-16T14:52:09.282Z,65.40
2023-04-16T14:53:11.887Z,66.31
2023-04-16T14:54:14.425Z,67.55
2023-04-16T14:55:18.667Z,67.30
2023-04-16T14:56:22.856Z,66.59
2023-04-16T14:57:26.922Z,65.31
2023-04-16T14:58:31.013Z,65.86
2023-04-16T14:59:35.398Z,66.82
2023-04-16T15:00:38.010Z,68.19
2023-04-16T15:01:40.618Z,66.04
2023-04-16T15:02:44.918Z,66.61
2023-04-16T15:03:47.538Z,64.17
2023-04-16T15:04:51.757Z,64.68
2023-04-16T15:05:54.224Z,63.51
2023-04-16T15:06:56.902Z,64.94
2023-04-16T15:07:59.586Z,63.88
2023-04-16T15:09:02.229Z,65.35
2023-04-16T15:10:04.901Z,66.38
2023-04-16T15:11:07.528Z,66.86
2023-04-16T15:12:11.779Z,65.69
2023-04-16T15:13:14.342Z,63.64
2023-04-16T15:14:17.108Z,63.50
2023-04-16T15:15:21.312Z,63.09
2023-04-16T15:16:25.459Z,62.33
2023-04-16T15:17:29.571Z,64.24
2023-04-16T15:18:32.069Z,63.05
2023-04-16T15:19:36.369Z,62.95
2023-04-16T15:20:40.578Z,63.07
2023-04-16T15:21:43.183Z,62.74
2023-04-16T15:22:47.327Z,63.15
2023-04-16T15:23:50.084Z,63.54
2023-04-16T15:24:52.654Z,62.69
2023-04-16T15:25:56.844Z,63.01
2023-04-16T15:26:59.264Z,62.21
2023-04-16T15:28:01.945Z,62.50
2023-04-16T15:29:06.184Z,63.01
2023-04-16T15:30:10.277Z,61.77
2023-04-16T15:31:12.823Z,62.09
2023-04-16T15:32:15.501Z,62.82
2023-04-16T15:33:18.152Z,62.22
2023-04-16T15:34:22.432Z,62.98
2023-04-16T15:35:24.954Z,62.31
2023-04-16T15:36:27.496Z,61.79
2023-04-16T15:37:31.769Z,63.25
2023-04-16T15:38:34.290Z,62.33
2023-04-16T15:39:38.592Z,63.19
2023-04-16T15:40:41.068Z,63.19
2023-04-16T15:41:57.296Z,62.63
2023-04-16T15:42:47.979Z,62.18
2023-04-16T15:43:52.164Z,62.81
2023-04-16T15:44:56.106Z,63.27
2023-04-16T15:46:00.196Z,62.25
2023-04-16T15:47:02.672Z,62.63
2023-04-16T15:48:05.348Z,62.58
2023-04-16T15:49:09.847Z,64.37
2023-04-16T15:50:12.228Z,64.56
2023-04-16T15:51:14.896Z,62.80
2023-04-16T15:52:17.528Z,63.57
2023-04-16T15:53:20.186Z,63.70
2023-04-16T15:54:24.428Z,63.72
2023-04-16T15:55:26.898Z,62.95
2023-04-16T15:56:29.462Z,63.47
2023-04-16T15:57:32.016Z,62.82
2023-04-16T15:58:36.236Z,62.42
2023-04-16T15:59:40.418Z,63.04
2023-04-16T16:00:42.948Z,62.48
2023-04-16T16:01:45.606Z,62.91
2023-04-16T16:02:49.921Z,62.80
2023-04-16T16:03:52.649Z,63.11
2023-04-16T16:04:56.597Z,62.70
2023-04-16T16:05:59.459Z,62.38
2023-04-16T16:07:01.725Z,62.11
2023-04-16T16:08:04.287Z,62.73
2023-04-16T16:09:08.503Z,61.56
2023-04-16T16:10:12.329Z,60.88
2023-04-16T16:11:16.310Z,62.03
2023-04-16T16:12:20.239Z,61.00
2023-04-16T16:13:22.609Z,61.08
2023-04-16T16:14:25.067Z,61.54
2023-04-16T16:15:27.555Z,59.08
2023-04-16T16:16:30.063Z,59.69
2023-04-16T16:17:32.502Z,57.63
2023-04-16T16:18:34.993Z,57.88
2023-04-16T16:19:37.449Z,57.47
2023-04-16T16:20:39.973Z,56.17
2023-04-16T16:21:42.459Z,55.65
2023-04-16T16:22:44.842Z,56.15
2023-04-16T16:23:48.360Z,56.20
2023-04-16T16:24:50.648Z,55.60
2023-04-16T16:25:54.604Z,55.23
2023-04-16T16:26:56.980Z,55.25
2023-04-16T16:27:59.363Z,54.75
2023-04-16T16:29:01.782Z,55.02
2023-04-16T16:30:04.221Z,55.45
2023-04-16T16:31:08.355Z,55.71
2023-04-16T16:32:10.636Z,54.99
2023-04-16T16:33:13.058Z,54.29
2023-04-16T16:34:20.711Z,54.93
2023-04-16T16:35:17.940Z,55.04
2023-04-16T16:36:20.367Z,54.79
2023-04-16T16:37:24.425Z,55.65
2023-04-16T16:38:28.322Z,56.53
2023-04-16T16:39:32.123Z,56.30
2023-04-16T16:40:36.079Z,56.46
2023-04-16T16:41:40.003Z,57.48
2023-04-16T16:42:42.337Z,58.54
2023-04-16T16:43:44.720Z,58.37
2023-04-16T16:44:47.141Z,58.36
2023-04-16T16:45:51.202Z,57.58
2023-04-16T16:46:55.106Z,58.50
2023-04-16T16:47:58.955Z,58.28
2023-04-16T16:49:01.296Z,59.39
2023-04-16T16:50:03.707Z,59.10
2023-04-16T16:51:07.735Z,59.58
2023-04-16T16:52:10.036Z,59.90
2023-04-16T16:53:12.501Z,59.26
2023-04-16T16:54:14.962Z,58.87
2023-04-16T16:55:18.743Z,59.29
2023-04-16T16:56:21.667Z,57.38
2023-04-16T16:57:24.102Z,58.12
2023-04-16T16:58:28.167Z,57.16
2023-04-16T16:59:32.105Z,57.51
2023-04-16T17:00:34.576Z,56.65
2023-04-16T17:01:38.629Z,56.40
2023-04-16T17:02:40.948Z,56.35
2023-04-16T17:03:43.410Z,56.00
2023-04-16T17:04:45.691Z,56.51
2023-04-16T17:05:49.813Z,56.52
2023-04-16T17:06:52.234Z,56.82
2023-04-16T17:07:54.513Z,57.20
2023-04-16T17:08:56.921Z,57.59
2023-04-16T17:10:02.046Z,57.20
2023-04-16T17:11:01.734Z,58.43
2023-04-16T17:12:04.222Z,58.28
2023-04-16T17:13:06.632Z,59.24
2023-04-16T17:14:09.071Z,59.33
2023-04-16T17:15:11.594Z,59.80
2023-04-16T17:16:14.010Z,60.49
2023-04-16T17:17:18.058Z,60.43
2023-04-16T17:18:20.328Z,60.04
2023-04-16T17:19:24.381Z,60.67
2023-04-16T17:20:28.267Z,60.45
2023-04-16T17:21:30.580Z,60.85
2023-04-16T17:22:32.997Z,61.61
2023-04-16T17:32:04.375Z,64.71
2023-04-16T17:33:07.014Z,65.23
2023-04-16T17:34:09.490Z,65.18
2023-04-16T17:35:11.841Z,65.68
2023-04-16T17:36:15.858Z,65.79
2023-04-16T17:37:18.223Z,66.00
2023-04-16T17:38:22.196Z,66.60
2023-04-16T17:39:26.072Z,66.78
2023-04-16T17:40:28.436Z,67.07
2023-04-16T17:41:30.851Z,67.72
2023-04-16T17:42:34.835Z,67.66
2023-04-16T17:43:38.769Z,67.60
2023-04-16T17:44:41.008Z,68.48
2023-04-16T17:45:43.523Z,68.64
2023-04-16T17:46:46.047Z,68.65
2023-04-16T17:47:50.195Z,68.49
2023-04-16T17:48:52.441Z,68.83
2023-04-16T17:49:54.980Z,69.07
2023-04-16T17:50:57.333Z,69.18
2023-04-16T17:51:59.769Z,69.68
2023-04-16T17:53:02.335Z,69.58
2023-04-16T17:54:04.738Z,70.02
2023-04-16T17:55:07.157Z,70.85
2023-04-16T17:56:11.197Z,70.98
2023-04-16T17:57:13.508Z,70.58
2023-04-16T17:58:17.565Z,70.80
2023-04-16T17:59:21.413Z,71.00
2023-04-16T18:00:25.351Z,70.24
2023-04-16T18:01:27.790Z,70.44
2023-04-16T18:02:30.314Z,70.69
2023-04-16T18:03:34.419Z,71.09
2023-04-16T18:04:36.561Z,70.51
2023-04-16T18:05:40.503Z,71.02
2023-04-16T18:06:44.435Z,71.60
2023-04-16T18:07:46.639Z,71.58
2023-04-16T18:08:50.627Z,71.53
2023-04-16T18:09:54.666Z,71.97
2023-04-16T18:10:58.479Z,71.81
2023-04-16T18:20:29.786Z,74.70
2023-04-16T18:21:33.709Z,74.70
2023-04-16T18:31:05.049Z,76.88
2023-04-16T18:40:40.600Z,78.63
2023-04-16T18:41:44.580Z,78.95
2023-04-16T18:51:17.553Z,79.89
2023-04-16T18:52:19.888Z,80.14
2023-04-16T18:53:22.304Z,79.85
2023-04-16T19:02:55.140Z,81.47
2023-04-16T19:12:29.313Z,81.84
2023-04-16T19:22:05.085Z,82.85
2023-04-16T19:31:37.179Z,83.43
2023-04-16T19:41:11.079Z,84.15
2023-04-16T19:50:46.875Z,84.61
2023-04-16T20:00:21.092Z,85.38
2023-04-16T20:09:52.941Z,85.69
2023-04-16T20:19:27.849Z,86.63
2023-04-16T20:29:01.805Z,87.44
2023-04-16T20:38:35.825Z,88.26
2023-04-16T20:48:07.993Z,89.68
2023-04-16T20:57:41.916Z,90.57
2023-04-16T21:07:16.087Z,90.76
2023-04-16T21:16:52.215Z,91.96
2023-04-16T21:26:24.489Z,92.13
2023-04-16T21:35:58.955Z,92.21
2023-04-16T21:45:31.760Z,92.58
2023-04-16T21:55:05.807Z,92.92
2023-04-16T22:04:39.791Z,93.48
2023-04-16T22:14:14.000Z,94.47
2023-04-16T22:23:49.350Z,95.58
2023-04-16T22:33:24.448Z,96.50
2023-04-16T22:42:55.894Z,97.02
2023-04-16T22:52:30.260Z,97.44
2023-04-16T23:02:04.057Z,98.66
2023-04-16T23:11:39.613Z,100.00
2023-04-16T23:21:14.181Z,100.00
2023-04-16T23:30:45.404Z,100.00
2023-04-16T23:40:19.519Z,100.00
2023-04-16T23:49:54.988Z,100.00
2023-04-16T23:59:28.707Z,100.00
